createdAt,value
2019-01-22T00:00:26.206Z,78.65
2019-01-22T00:02:28.067Z,65.67
2019-01-22T00:04:29.430Z,78.80
2019-01-22T00:09:53.828Z,84.72
2019-01-22T00:11:55.169Z,69.50
2019-01-22T00:13:56.560Z,69.65
2019-01-22T00:15:57.916Z,66.42
2019-01-22T00:17:59.272Z,67.17
2019-01-22T00:20:00.634Z,62.58
2019-01-22T00:22:02.099Z,81.15
2019-01-22T00:24:03.875Z,65.80
2019-01-22T00:26:05.214Z,59.25
2019-01-22T00:28:06.586Z,65.85
2019-01-22T00:30:13.441Z,66.53
2019-01-22T00:32:14.807Z,69.07
2019-01-22T00:34:16.466Z,68.55
2019-01-22T00:36:18.101Z,60.67
2019-01-22T00:38:19.488Z,62.85
2019-01-22T00:40:20.825Z,68.78
2019-01-22T00:42:22.239Z,69.00
2019-01-22T00:44:24.853Z,62.93
2019-01-22T00:46:26.221Z,59.33
2019-01-22T00:48:27.569Z,60.43
2019-01-22T00:50:28.933Z,60.03
2019-01-22T00:52:30.793Z,63.92
2019-01-22T00:54:32.170Z,67.62
2019-01-22T00:56:33.583Z,65.28
2019-01-22T00:58:34.951Z,61.60
2019-01-22T01:00:36.307Z,59.93
2019-01-22T01:02:37.665Z,61.90
2019-01-22T01:04:39.221Z,58.20
2019-01-22T01:06:40.569Z,59.30
2019-01-22T01:08:42.222Z,63.45
2019-01-22T01:10:43.862Z,69.70
2019-01-22T01:12:45.417Z,69.92
2019-01-22T01:14:46.881Z,74.90
2019-01-22T01:16:48.239Z,64.27
2019-01-22T01:18:49.572Z,65.22
2019-01-22T01:20:50.964Z,60.55
2019-01-22T01:22:52.339Z,57.75
2019-01-22T01:24:53.707Z,68.45
2019-01-22T01:26:55.488Z,64.15
2019-01-22T01:28:57.345Z,64.12
2019-01-22T01:30:58.676Z,56.73
2019-01-22T01:33:00.036Z,58.08
2019-01-22T01:35:01.477Z,60.90
2019-01-22T01:37:03.112Z,59.77
2019-01-22T01:39:04.487Z,65.45
2019-01-22T01:41:06.041Z,59.13
2019-01-22T01:43:07.385Z,56.40
2019-01-22T01:45:09.030Z,63.50
2019-01-22T01:47:10.493Z,57.98
2019-01-22T01:49:11.850Z,57.05
2019-01-22T01:51:13.222Z,59.75
2019-01-22T01:53:14.592Z,55.92
2019-01-22T01:55:16.832Z,47.62
2019-01-22T01:57:18.213Z,63.15
2019-01-22T01:59:19.574Z,62.50
2019-01-22T02:01:22.207Z,54.67
2019-01-22T02:03:23.572Z,56.95
2019-01-22T02:05:24.966Z,59.35
2019-01-22T02:07:26.376Z,60.20
2019-01-22T02:09:27.752Z,55.60
2019-01-22T02:11:29.103Z,61.33
2019-01-22T02:13:31.255Z,54.13
2019-01-22T02:15:38.359Z,51.73
2019-01-22T02:17:53.962Z,57.48
2019-01-22T02:20:19.296Z,68.37
2019-01-22T02:22:44.437Z,92.47
2019-01-22T02:24:54.093Z,71.55
2019-01-22T02:27:09.651Z,75.28
2019-01-22T02:29:25.710Z,63.30
2019-01-22T02:31:50.695Z,60.55
2019-01-22T02:34:01.063Z,57.55
2019-01-22T02:36:43.366Z,56.08
2019-01-22T02:39:02.102Z,59.42
2019-01-22T02:41:14.716Z,63.65
2019-01-22T02:43:24.690Z,61.30
2019-01-22T02:46:09.354Z,59.95
2019-01-22T02:48:19.632Z,76.77
2019-01-22T02:50:42.067Z,71.12
2019-01-22T02:53:06.840Z,61.90
2019-01-22T02:55:13.911Z,64.03
2019-01-22T02:58:08.062Z,66.35
2019-01-22T03:00:17.836Z,61.63
2019-01-22T03:02:44.445Z,55.05
2019-01-22T03:05:06.602Z,65.85
2019-01-22T03:07:35.254Z,61.48
2019-01-22T03:10:20.148Z,63.73
2019-01-22T03:12:57.093Z,57.50
2019-01-22T03:15:39.074Z,58.73
2019-01-22T03:17:58.048Z,62.33
2019-01-22T03:20:14.035Z,57.80
2019-01-22T03:22:56.567Z,64.72
2019-01-22T03:25:30.575Z,60.43
2019-01-22T03:27:52.866Z,61.53
2019-01-22T03:30:20.932Z,54.23
2019-01-22T03:33:22.080Z,67.05
2019-01-22T03:36:05.115Z,65.32
2019-01-22T03:39:06.154Z,60.98
2019-01-22T03:41:49.198Z,62.30
2019-01-22T03:44:50.258Z,62.65
2019-01-22T03:47:33.295Z,66.50
2019-01-22T03:50:16.024Z,68.87
2019-01-22T03:52:59.513Z,58.83
2019-01-22T03:56:00.513Z,61.02
2019-01-22T03:58:21.811Z,62.55
2019-01-22T04:00:43.112Z,62.90
2019-01-22T04:03:04.480Z,64.42
2019-01-22T04:05:25.783Z,61.65
2019-01-22T04:07:47.050Z,65.17
2019-01-22T04:10:30.243Z,62.62
2019-01-22T04:12:51.518Z,56.40
2019-01-22T04:15:34.593Z,63.20
2019-01-22T04:17:55.993Z,54.90
2019-01-22T04:20:17.353Z,53.13
2019-01-22T04:22:38.612Z,63.83
2019-01-22T04:25:40.260Z,58.10
2019-01-22T04:28:23.293Z,61.42
2019-01-22T04:34:38.407Z,56.50
2019-01-22T04:37:21.608Z,46.83
2019-01-22T04:40:22.634Z,62.55
2019-01-22T04:43:05.710Z,62.95
2019-01-22T04:45:48.752Z,50.75
2019-01-22T04:48:32.146Z,55.28
2019-01-22T04:51:15.173Z,54.80
2019-01-22T04:53:46.726Z,61.05
2019-01-22T04:55:56.745Z,50.78
2019-01-22T04:58:04.355Z,55.50
2019-01-22T05:00:48.253Z,61.40
2019-01-22T05:02:58.341Z,59.85
2019-01-22T05:05:25.108Z,64.80
2019-01-22T05:07:41.456Z,62.80
2019-01-22T05:10:00.519Z,70.70
2019-01-22T05:12:22.212Z,68.55
2019-01-22T05:14:49.926Z,56.40
2019-01-22T05:17:02.728Z,65.50
2019-01-22T05:19:15.763Z,57.90
2019-01-22T05:21:44.198Z,57.98
2019-01-22T05:24:18.789Z,53.45
2019-01-22T05:26:50.163Z,64.95
2019-01-22T05:29:25.713Z,67.03
2019-01-22T05:31:45.185Z,58.98
2019-01-22T05:34:13.354Z,57.17
2019-01-22T05:36:48.902Z,67.08
2019-01-22T05:39:13.503Z,61.95
2019-01-22T05:41:44.364Z,61.95
2019-01-22T05:44:24.803Z,55.92
2019-01-22T05:47:16.399Z,53.42
2019-01-22T05:49:55.206Z,54.13
2019-01-22T05:52:08.507Z,60.25
2019-01-22T05:54:25.125Z,56.65
2019-01-22T05:56:33.215Z,48.40
2019-01-22T05:59:10.419Z,60.28
2019-01-22T06:01:17.507Z,62.95
2019-01-22T06:03:27.633Z,64.10
2019-01-22T06:06:06.395Z,53.78
2019-01-22T06:08:35.173Z,58.10
2019-01-22T06:10:57.334Z,57.17
2019-01-22T06:13:13.617Z,58.95
2019-01-22T06:15:44.695Z,58.00
2019-01-22T06:18:22.009Z,57.03
2019-01-22T06:20:49.374Z,53.68
2019-01-22T06:23:25.395Z,61.15
2019-01-22T06:25:59.535Z,64.55
2019-01-22T06:28:27.570Z,61.83
2019-01-22T06:30:57.044Z,58.75
2019-01-22T06:33:04.193Z,61.40
2019-01-22T06:35:18.538Z,55.58
2019-01-22T06:37:37.461Z,53.75
2019-01-22T06:39:44.597Z,58.95
2019-01-22T06:42:20.971Z,48.15
2019-01-22T06:45:10.573Z,58.78
2019-01-22T06:47:26.711Z,58.85
2019-01-22T06:49:39.561Z,51.85
2019-01-22T06:52:13.016Z,59.05
2019-01-22T06:54:26.080Z,64.97
2019-01-22T06:56:36.393Z,50.03
2019-01-22T06:58:58.877Z,57.65
2019-01-22T07:01:23.320Z,58.68
2019-01-22T07:03:42.499Z,53.15
2019-01-22T07:06:17.043Z,56.55
2019-01-22T07:09:08.809Z,54.10
2019-01-22T07:11:33.646Z,49.03
2019-01-22T07:14:18.913Z,59.65
2019-01-22T07:16:29.351Z,48.05
2019-01-22T07:18:39.619Z,61.23
2019-01-22T07:20:58.221Z,61.13
2019-01-22T07:23:23.075Z,62.50
2019-01-22T07:26:02.071Z,54.40
2019-01-22T07:28:38.903Z,59.23
2019-01-22T07:31:06.662Z,54.67
2019-01-22T07:33:33.362Z,52.60
2019-01-22T07:35:52.495Z,64.65
2019-01-22T07:37:59.709Z,69.72
2019-01-22T07:40:30.904Z,60.70
2019-01-22T07:42:50.338Z,66.07
2019-01-22T07:45:12.635Z,57.27
2019-01-22T07:47:22.294Z,57.95
2019-01-22T07:50:09.127Z,60.25
2019-01-22T07:52:31.429Z,55.63
2019-01-22T07:55:06.178Z,57.43
2019-01-22T07:57:47.723Z,62.48
2019-01-22T08:00:00.939Z,58.92
2019-01-22T08:02:24.304Z,63.23
2019-01-22T08:05:10.904Z,56.48
2019-01-22T08:07:25.869Z,64.25
2019-01-22T08:09:56.902Z,57.30
2019-01-22T08:12:26.759Z,64.55
2019-01-22T08:14:48.703Z,57.10
2019-01-22T08:17:19.549Z,53.35
2019-01-22T08:19:47.372Z,52.48
2019-01-22T08:22:29.763Z,56.40
2019-01-22T08:25:01.068Z,50.85
2019-01-22T08:27:20.298Z,66.15
2019-01-22T08:29:41.907Z,67.42
2019-01-22T08:31:57.848Z,63.70
2019-01-22T08:34:50.946Z,64.40
2019-01-22T08:37:06.980Z,59.95
2019-01-22T08:39:23.501Z,67.72
2019-01-22T08:42:02.042Z,53.25
2019-01-22T08:44:30.273Z,62.53
2019-01-22T08:46:37.375Z,56.80
2019-01-22T08:48:55.986Z,59.75
2019-01-22T08:51:27.261Z,54.73
2019-01-22T08:53:37.074Z,59.93
2019-01-22T08:56:14.163Z,61.55
2019-01-22T08:58:35.919Z,63.45
2019-01-22T09:00:55.349Z,61.08
2019-01-22T09:03:08.261Z,58.65
2019-01-22T09:05:24.575Z,69.60
2019-01-22T09:07:43.856Z,66.15
2019-01-22T09:10:12.724Z,69.82
2019-01-22T09:12:19.831Z,63.85
2019-01-22T09:14:39.329Z,77.08
2019-01-22T09:17:09.102Z,68.28
2019-01-22T09:19:28.418Z,65.25
2019-01-22T09:22:00.079Z,58.13
2019-01-22T09:24:07.154Z,51.55
2019-01-22T09:26:14.414Z,74.70
2019-01-22T09:28:38.586Z,53.25
2019-01-22T09:30:51.701Z,72.95
2019-01-22T09:33:10.935Z,83.20
2019-01-22T09:35:36.086Z,58.05
2019-01-22T09:37:39.156Z,58.25
2019-01-22T09:39:40.550Z,53.30
2019-01-22T09:41:41.922Z,54.85
2019-01-22T09:43:43.509Z,60.35
2019-01-22T09:45:44.879Z,56.48
2019-01-22T09:47:46.345Z,56.45
2019-01-22T09:49:47.842Z,55.88
2019-01-22T09:51:49.304Z,54.60
2019-01-22T09:53:50.676Z,68.52
2019-01-22T09:55:52.074Z,60.92
2019-01-22T09:57:53.428Z,79.90
2019-01-22T09:59:54.833Z,62.98
2019-01-22T10:01:56.202Z,63.68
2019-01-22T10:04:03.389Z,55.20
2019-01-22T10:06:00.956Z,50.70
2019-01-22T10:08:02.316Z,48.23
2019-01-22T10:10:15.088Z,55.48
2019-01-22T10:12:16.454Z,52.73
2019-01-22T10:14:17.806Z,65.42
2019-01-22T10:16:19.435Z,56.73
2019-01-22T10:18:20.829Z,51.33
2019-01-22T10:20:22.792Z,52.48
2019-01-22T10:22:24.169Z,49.77
2019-01-22T10:24:25.562Z,44.03
2019-01-22T10:26:26.968Z,43.98
2019-01-22T10:28:28.341Z,53.00
2019-01-22T10:30:29.750Z,45.10
2019-01-22T10:32:31.124Z,45.05
2019-01-22T10:34:32.545Z,41.80
2019-01-22T10:36:34.091Z,41.85
2019-01-22T10:38:35.458Z,47.93
2019-01-22T10:40:36.833Z,42.27
2019-01-22T10:42:38.237Z,39.90
2019-01-22T10:44:39.681Z,48.42
2019-01-22T10:46:41.051Z,42.73
2019-01-22T10:48:42.449Z,47.27
2019-01-22T10:50:43.811Z,47.40
2019-01-22T10:52:45.177Z,43.13
2019-01-22T10:54:46.568Z,40.95
2019-01-22T10:56:47.971Z,39.45
2019-01-22T10:58:49.338Z,43.30
2019-01-22T11:00:50.741Z,48.45
2019-01-22T11:02:52.198Z,42.45
2019-01-22T11:04:53.767Z,43.68
2019-01-22T11:06:55.162Z,47.20
2019-01-22T11:08:56.534Z,43.85
2019-01-22T11:10:57.951Z,39.08
2019-01-22T11:12:59.361Z,38.55
2019-01-22T11:15:02.853Z,41.08
2019-01-22T11:17:04.257Z,35.43
2019-01-22T11:19:05.660Z,41.77
2019-01-22T11:21:07.025Z,34.50
2019-01-22T11:23:08.380Z,38.45
2019-01-22T11:25:14.588Z,38.13
2019-01-22T11:27:15.952Z,40.67
2019-01-22T11:29:17.326Z,34.35
2019-01-22T11:31:18.723Z,38.08
2019-01-22T11:33:20.095Z,37.15
2019-01-22T11:35:23.567Z,40.80
2019-01-22T11:37:25.183Z,37.98
2019-01-22T11:39:26.549Z,37.63
2019-01-22T11:41:28.015Z,35.92
2019-01-22T11:43:29.442Z,36.13
2019-01-22T11:45:30.804Z,34.45
2019-01-22T11:47:32.270Z,36.80
2019-01-22T11:49:33.985Z,36.08
2019-01-22T11:51:37.249Z,37.70
2019-01-22T11:53:38.674Z,30.50
2019-01-22T11:55:40.182Z,32.38
2019-01-22T11:57:41.556Z,34.95
2019-01-22T11:59:43.215Z,32.78
2019-01-22T12:01:44.624Z,34.95
2019-01-22T12:03:46.194Z,37.00
2019-01-22T12:05:47.661Z,28.57
2019-01-22T12:07:49.079Z,38.10
2019-01-22T12:09:50.548Z,31.60
2019-01-22T12:11:51.954Z,33.95
2019-01-22T12:13:55.256Z,31.05
2019-01-22T12:15:56.761Z,35.25
2019-01-22T12:17:58.237Z,32.15
2019-01-22T12:20:01.542Z,32.88
2019-01-22T12:22:02.981Z,27.70
2019-01-22T12:24:04.471Z,32.42
2019-01-22T12:26:05.837Z,26.55
2019-01-22T12:28:07.339Z,33.98
2019-01-22T12:30:26.275Z,25.10
2019-01-22T12:32:27.853Z,33.15
2019-01-22T12:34:29.226Z,32.42
2019-01-22T12:36:30.632Z,29.82
2019-01-22T12:38:31.995Z,32.28
2019-01-22T12:40:33.510Z,29.95
2019-01-22T12:42:35.012Z,34.88
2019-01-22T12:44:36.472Z,35.40
2019-01-22T12:46:37.862Z,29.12
2019-01-22T12:48:39.289Z,25.48
2019-01-22T12:50:40.883Z,28.60
2019-01-22T12:52:42.251Z,27.32
2019-01-22T12:54:43.660Z,29.25
2019-01-22T12:56:46.067Z,30.02
2019-01-22T12:58:47.463Z,30.12
2019-01-22T13:00:48.854Z,30.00
2019-01-22T13:02:50.418Z,30.15
2019-01-22T13:04:51.841Z,24.75
2019-01-22T13:06:53.203Z,24.90
2019-01-22T13:08:54.643Z,26.05
2019-01-22T13:10:56.008Z,27.20
2019-01-22T13:12:57.478Z,29.35
2019-01-22T13:14:58.904Z,28.35
2019-01-22T13:17:00.276Z,24.47
2019-01-22T13:19:01.634Z,26.97
2019-01-22T13:21:03.304Z,30.85
2019-01-22T13:23:04.774Z,27.65
2019-01-22T13:25:09.442Z,23.67
2019-01-22T13:27:10.875Z,29.25
2019-01-22T13:29:12.336Z,29.25
2019-01-22T13:31:13.763Z,29.25
2019-01-22T13:33:15.193Z,27.45
2019-01-22T13:35:16.841Z,24.50
2019-01-22T13:37:18.200Z,28.52
2019-01-22T13:39:19.579Z,27.90
2019-01-22T13:41:21.079Z,30.12
2019-01-22T13:43:22.454Z,25.90
2019-01-22T13:45:33.183Z,25.88
2019-01-22T13:47:34.580Z,26.68
2019-01-22T13:49:35.966Z,24.90
2019-01-22T13:51:37.378Z,27.45
2019-01-22T13:53:38.856Z,28.80
2019-01-22T13:55:40.406Z,29.77
2019-01-22T13:57:41.820Z,28.27
2019-01-22T13:59:43.195Z,32.45
2019-01-22T14:01:44.566Z,33.67
2019-01-22T14:03:46.020Z,31.77
2019-01-22T14:05:47.410Z,25.20
2019-01-22T14:07:48.884Z,28.12
2019-01-22T14:09:50.372Z,27.00
2019-01-22T14:11:51.750Z,27.85
2019-01-22T14:13:53.128Z,25.40
2019-01-22T14:15:54.578Z,26.20
2019-01-22T14:17:55.960Z,30.95
2019-01-22T14:19:57.321Z,30.82
2019-01-22T14:21:59.340Z,25.20
2019-01-22T14:24:00.709Z,25.02
2019-01-22T14:26:02.240Z,28.65
2019-01-22T14:28:03.877Z,28.07
2019-01-22T14:30:11.135Z,34.67
2019-01-22T14:32:12.503Z,27.17
2019-01-22T14:34:13.880Z,29.63
2019-01-22T14:36:17.217Z,29.48
2019-01-22T14:38:18.587Z,28.92
2019-01-22T14:40:20.423Z,29.00
2019-01-22T14:42:21.891Z,30.72
2019-01-22T14:44:23.258Z,30.37
2019-01-22T14:46:24.688Z,23.87
2019-01-22T14:48:26.055Z,28.47
2019-01-22T14:50:30.632Z,30.50
2019-01-22T14:52:32.264Z,32.73
2019-01-22T14:54:33.699Z,31.95
2019-01-22T14:56:35.082Z,26.37
2019-01-22T14:58:36.451Z,27.25
2019-01-22T15:00:37.879Z,26.50
2019-01-22T15:02:39.348Z,27.55
2019-01-22T15:04:40.717Z,35.33
2019-01-22T15:06:42.141Z,34.75
2019-01-22T15:08:43.508Z,29.70
2019-01-22T15:10:44.885Z,28.60
2019-01-22T15:12:53.350Z,34.25
2019-01-22T15:14:54.711Z,27.62
2019-01-22T15:16:56.126Z,25.52
2019-01-22T15:18:57.533Z,35.38
2019-01-22T15:20:58.904Z,29.20
2019-01-22T15:23:00.433Z,34.48
2019-01-22T15:25:01.801Z,30.88
2019-01-22T15:27:03.269Z,31.73
2019-01-22T15:29:04.792Z,31.80
2019-01-22T15:31:06.153Z,36.93
2019-01-22T15:33:07.513Z,29.95
2019-01-22T15:35:10.507Z,31.45
2019-01-22T15:37:11.874Z,41.20
2019-01-22T15:39:13.244Z,31.27
2019-01-22T15:41:14.676Z,34.27
2019-01-22T15:43:16.039Z,31.48
2019-01-22T15:45:17.801Z,31.85
2019-01-22T15:47:19.233Z,29.55
2019-01-22T15:49:20.591Z,31.80
2019-01-22T15:51:22.061Z,33.15
2019-01-22T15:53:23.485Z,29.07
2019-01-22T15:55:30.927Z,33.92
2019-01-22T15:57:32.292Z,37.60
2019-01-22T15:59:33.721Z,31.55
2019-01-22T16:01:35.183Z,34.38
2019-01-22T16:03:36.546Z,33.00
2019-01-22T16:05:37.957Z,34.43
2019-01-22T16:07:39.774Z,38.02
2019-01-22T16:09:41.249Z,34.20
2019-01-22T16:11:42.720Z,37.63
2019-01-22T16:13:44.200Z,34.13
2019-01-22T16:15:45.565Z,31.60
2019-01-22T16:17:47.633Z,33.45
2019-01-22T16:19:49.146Z,38.23
2019-01-22T16:21:50.513Z,36.08
2019-01-22T16:23:52.012Z,33.58
2019-01-22T16:25:53.447Z,35.48
2019-01-22T16:27:54.796Z,29.77
2019-01-22T16:29:56.171Z,38.92
2019-01-22T16:31:57.582Z,34.67
2019-01-22T16:33:59.025Z,35.85
2019-01-22T16:36:00.451Z,35.35
2019-01-22T16:38:01.815Z,35.33
2019-01-22T16:40:08.387Z,36.17
2019-01-22T16:42:09.823Z,39.90
2019-01-22T16:44:11.185Z,36.08
2019-01-22T16:46:12.551Z,37.73
2019-01-22T16:48:13.964Z,38.40
2019-01-22T16:50:15.428Z,38.25
2019-01-22T16:52:16.845Z,44.13
2019-01-22T16:54:18.205Z,42.00
2019-01-22T16:56:19.567Z,39.58
2019-01-22T16:58:21.284Z,46.53
2019-01-22T17:00:26.741Z,40.60
2019-01-22T17:02:28.110Z,45.63
2019-01-22T17:04:29.532Z,41.25
2019-01-22T17:06:31.002Z,45.70
2019-01-22T17:08:32.421Z,43.25
2019-01-22T17:10:34.056Z,47.17
2019-01-22T17:12:35.402Z,44.05
2019-01-22T17:14:36.836Z,45.98
2019-01-22T17:16:38.265Z,40.65
2019-01-22T17:18:39.729Z,42.67
2019-01-22T17:20:47.554Z,45.80
2019-01-22T17:22:44.413Z,40.35
2019-01-22T17:24:45.782Z,45.50
2019-01-22T17:26:47.145Z,45.38
2019-01-22T17:28:48.592Z,47.05
2019-01-22T17:30:49.954Z,56.23
2019-01-22T17:32:55.901Z,45.55
2019-01-22T17:34:57.966Z,46.00
2019-01-22T17:36:59.338Z,48.65
2019-01-22T17:39:00.804Z,49.55
2019-01-22T17:41:02.174Z,48.13
2019-01-22T17:43:04.033Z,46.10
2019-01-22T17:45:07.468Z,49.03
2019-01-22T17:47:08.831Z,48.28
2019-01-22T17:49:10.189Z,47.17
2019-01-22T17:51:11.691Z,64.58
2019-01-22T17:53:13.058Z,49.63
2019-01-22T17:55:14.428Z,50.43
2019-01-22T17:57:15.854Z,56.88
2019-01-22T17:59:17.238Z,51.73
2019-01-22T18:01:18.597Z,55.55
2019-01-22T18:03:20.351Z,48.25
2019-01-22T18:05:22.121Z,47.83
2019-01-22T18:07:23.487Z,55.70
2019-01-22T18:09:24.903Z,48.68
2019-01-22T18:11:26.278Z,50.75
2019-01-22T18:13:27.651Z,41.92
2019-01-22T18:15:29.136Z,47.45
2019-01-22T18:17:30.511Z,49.23
2019-01-22T18:19:31.870Z,48.60
2019-01-22T18:21:33.466Z,55.15
2019-01-22T18:23:34.834Z,51.05
2019-01-22T18:25:36.192Z,51.08
2019-01-22T18:27:37.620Z,52.43
2019-01-22T18:29:39.055Z,50.23
2019-01-22T18:31:40.422Z,57.50
2019-01-22T18:33:41.786Z,49.13
2019-01-22T18:35:43.191Z,56.77
2019-01-22T18:37:44.551Z,49.95
2019-01-22T18:39:45.991Z,54.25
2019-01-22T18:41:47.338Z,57.35
2019-01-22T18:43:48.719Z,55.73
2019-01-22T18:45:50.318Z,56.88
2019-01-22T18:47:51.676Z,58.20
2019-01-22T18:49:53.041Z,53.73
2019-01-22T18:51:54.464Z,54.30
2019-01-22T18:53:55.832Z,52.60
2019-01-22T18:55:57.254Z,201.35
2019-01-22T18:57:58.683Z,55.40
2019-01-22T19:00:00.037Z,97.47
2019-01-22T19:02:01.404Z,51.55
2019-01-22T19:04:04.021Z,50.35
2019-01-22T19:06:05.390Z,54.20
2019-01-22T19:08:07.006Z,51.92
2019-01-22T19:10:16.081Z,56.73
2019-01-22T19:12:17.447Z,58.70
2019-01-22T19:14:18.870Z,52.20
2019-01-22T19:16:20.356Z,53.55
2019-01-22T19:18:21.726Z,56.28
2019-01-22T19:20:23.087Z,57.38
2019-01-22T19:22:24.491Z,57.35
2019-01-22T19:24:25.850Z,52.48
2019-01-22T19:26:27.210Z,49.42
2019-01-22T19:28:28.627Z,54.35
2019-01-22T19:30:30.497Z,49.18
2019-01-22T19:32:31.852Z,51.88
2019-01-22T19:34:33.289Z,57.85
2019-01-22T19:36:34.647Z,56.40
2019-01-22T19:38:36.050Z,60.03
2019-01-22T19:40:37.563Z,60.78
2019-01-22T19:42:39.039Z,48.68
2019-01-22T19:44:40.393Z,56.70
2019-01-22T19:46:41.829Z,45.75
2019-01-22T19:48:43.195Z,54.25
2019-01-22T19:50:44.559Z,51.00
2019-01-22T19:52:45.979Z,55.40
2019-01-22T19:54:47.336Z,57.13
2019-01-22T19:56:48.763Z,60.05
2019-01-22T19:58:50.126Z,53.08
2019-01-22T20:00:51.488Z,49.90
2019-01-22T20:02:53.144Z,57.58
2019-01-22T20:04:54.510Z,59.90
2019-01-22T20:06:55.988Z,50.33
2019-01-22T20:08:57.421Z,56.80
2019-01-22T20:10:58.798Z,52.00
2019-01-22T20:13:00.162Z,57.60
2019-01-22T20:15:01.952Z,49.42
2019-01-22T20:17:03.389Z,55.45
2019-01-22T20:19:04.762Z,53.35
2019-01-22T20:21:06.188Z,53.85
2019-01-22T20:23:07.568Z,48.90
2019-01-22T20:25:09.216Z,47.48
2019-01-22T20:27:10.728Z,52.03
2019-01-22T20:29:12.190Z,57.85
2019-01-22T20:31:14.074Z,50.65
2019-01-22T20:33:15.441Z,57.08
2019-01-22T20:35:16.931Z,55.55
2019-01-22T20:37:18.356Z,51.98
2019-01-22T20:39:19.782Z,53.40
2019-01-22T20:41:21.141Z,52.43
2019-01-22T20:43:22.505Z,55.05
2019-01-22T20:45:27.561Z,53.08
2019-01-22T20:47:28.932Z,55.50
2019-01-22T20:49:30.307Z,53.23
2019-01-22T20:51:31.743Z,52.62
2019-01-22T20:53:33.092Z,46.58
2019-01-22T20:55:34.465Z,56.77
2019-01-22T20:57:35.885Z,54.88
2019-01-22T20:59:37.255Z,51.77
2019-01-22T21:01:38.922Z,54.10
2019-01-22T21:03:40.345Z,48.15
2019-01-22T21:05:41.707Z,47.25
2019-01-22T21:07:43.166Z,52.33
2019-01-22T21:09:44.936Z,59.90
2019-01-22T21:11:46.304Z,48.80
2019-01-22T21:13:47.671Z,52.40
2019-01-22T21:15:49.285Z,48.75
2019-01-22T21:17:50.653Z,51.18
2019-01-22T21:19:52.018Z,47.15
2019-01-22T21:21:53.448Z,53.42
2019-01-22T21:23:54.803Z,57.35
2019-01-22T21:25:56.172Z,46.75
2019-01-22T21:28:01.606Z,53.90
2019-01-22T21:30:00.854Z,56.00
2019-01-22T21:32:04.233Z,49.18
2019-01-22T21:34:05.652Z,50.00
2019-01-22T21:36:07.117Z,45.83
2019-01-22T21:38:08.841Z,48.95
2019-01-22T21:40:13.118Z,52.70
2019-01-22T21:42:14.475Z,48.25
2019-01-22T21:44:15.994Z,45.35
2019-01-22T21:46:17.367Z,44.20
2019-01-22T21:48:18.800Z,52.90
2019-01-22T21:50:20.376Z,61.95
2019-01-22T21:52:21.733Z,45.48
2019-01-22T21:54:23.160Z,49.30
2019-01-22T21:56:24.592Z,52.40
2019-01-22T21:58:25.953Z,60.28
2019-01-22T22:00:27.524Z,49.73
2019-01-22T22:02:28.934Z,56.98
2019-01-22T22:04:30.304Z,51.45
2019-01-22T22:06:31.671Z,51.00
2019-01-22T22:08:33.167Z,42.58
2019-01-22T22:10:34.725Z,54.10
2019-01-22T22:12:36.144Z,49.15
2019-01-22T22:14:37.606Z,45.33
2019-01-22T22:16:38.997Z,59.23
2019-01-22T22:18:40.398Z,58.65
2019-01-22T22:20:42.620Z,58.17
2019-01-22T22:22:44.389Z,46.02
2019-01-22T22:24:45.749Z,58.25
2019-01-22T22:26:47.142Z,43.02
2019-01-22T22:28:48.536Z,45.00
2019-01-22T22:30:49.897Z,61.80
2019-01-22T22:32:51.396Z,53.50
2019-01-22T22:34:52.766Z,46.77
2019-01-22T22:36:54.127Z,64.70
2019-01-22T22:38:55.732Z,51.48
2019-01-22T22:40:57.081Z,50.63
2019-01-22T22:42:58.450Z,52.60
2019-01-22T22:44:59.839Z,52.10
2019-01-22T22:47:01.213Z,55.65
2019-01-22T22:49:02.570Z,45.83
2019-01-22T22:51:03.966Z,47.45
2019-01-22T22:53:05.329Z,54.40
2019-01-22T22:55:06.791Z,49.93
2019-01-22T22:57:08.191Z,44.55
2019-01-22T22:59:09.554Z,54.03
2019-01-22T23:01:16.647Z,53.58
2019-01-22T23:03:18.017Z,55.60
2019-01-22T23:05:19.416Z,56.02
2019-01-22T23:07:20.819Z,49.20
2019-01-22T23:09:22.204Z,52.17
2019-01-22T23:11:23.573Z,43.90
2019-01-22T23:13:24.966Z,57.70
2019-01-22T23:15:26.341Z,60.23
2019-01-22T23:17:27.702Z,54.48
2019-01-22T23:19:29.100Z,58.73
2019-01-22T23:21:30.573Z,58.52
2019-01-22T23:23:31.977Z,54.18
2019-01-22T23:25:33.356Z,57.88
2019-01-22T23:27:34.726Z,51.95
2019-01-22T23:29:36.128Z,57.83
2019-01-22T23:31:37.493Z,58.30
2019-01-22T23:33:38.861Z,52.03
2019-01-22T23:35:40.760Z,54.35
2019-01-22T23:37:42.125Z,63.83
2019-01-22T23:39:43.487Z,72.65
2019-01-22T23:41:44.883Z,58.78
2019-01-22T23:43:46.281Z,62.33
2019-01-22T23:45:47.630Z,70.80
2019-01-22T23:47:49.018Z,63.00
2019-01-22T23:49:50.380Z,64.90
2019-01-22T23:51:52.448Z,73.12
2019-01-22T23:53:53.794Z,70.37
2019-01-22T23:55:55.144Z,67.03
2019-01-22T23:57:56.563Z,71.40
2019-01-22T23:59:58.146Z,68.05
